Terminal Aerodrome Forecast
Issued by NWS

Home | Current Version | Previous Version | Text Only | Print | Product List | Glossary On
Versions: 1 2 3 4 5 6 7 8 9 10 11 12 13 14 15 16 17 18 19 20 21 22 23 24 25 26 27 28 29 30 31 32
000
FTUS43 KDMX 031740
TAFOTM
TAF
KOTM 031740Z 0318/0418 15006KT P6SM BKN025
     FM032000 13006KT P6SM SCT025 BKN200
     FM040100 13008KT P6SM -RA SCT025 OVC035
     FM040800 15009KT 2SM -RASN BR OVC015
     FM041200 18010KT 3SM -RASN OVC007=

USA.gov is the U.S. government's official web portal to all federal, state and local government web resources and services.